Time;durP1;ratioP1;P1;durP2;ratioP2;P2;SDS_P1;SDS_P2;PMS_P1;PMS_P2;Temp;Humidity;BMP_temperature;BMP_pressure;BME280_temperature;BME280_humidity;BME280_pressure;Samples;Min_cycle;Max_cycle;Signal;HPM_P1;HPM_P2
2021/08/11 00:01:08;;;;;;;2.20;2.10;;;32.70;54.70;;;;;;5020096;28;20459;-36
2021/08/11 00:03:42;;;;;;;2.00;1.90;;;32.70;54.00;;;;;;5020492;28;20473;-39
2021/08/11 00:06:13;;;;;;;2.63;2.43;;;32.70;54.10;;;;;;5019848;28;20449;-37
2021/08/11 00:08:46;;;;;;;2.40;2.20;;;32.70;54.90;;;;;;5020619;28;20461;-37
2021/08/11 00:11:18;;;;;;;2.17;2.07;;;32.80;55.30;;;;;;5020760;28;20596;-37
2021/08/11 00:13:51;;;;;;;2.20;2.00;;;32.60;55.20;;;;;;5020842;28;20449;-37
2021/08/11 00:16:22;;;;;;;4.30;2.60;;;32.60;55.40;;;;;;5020400;28;20454;-36
2021/08/11 00:18:54;;;;;;;2.90;2.70;;;32.60;55.30;;;;;;5020715;28;20456;-37
2021/08/11 00:21:25;;;;;;;2.33;2.17;;;32.60;54.50;;;;;;5019603;28;20458;-37
2021/08/11 00:23:57;;;;;;;2.03;1.93;;;32.40;54.90;;;;;;5020211;28;20476;-36
2021/08/11 00:26:28;;;;;;;2.90;2.63;;;32.40;55.80;;;;;;5037305;28;20549;-37
2021/08/11 00:29:00;;;;;;;2.00;1.90;;;32.40;55.80;;;;;;5037279;28;20454;-36
2021/08/11 00:31:32;;;;;;;2.23;2.13;;;32.30;55.00;;;;;;5040020;28;20470;-38
2021/08/11 00:34:03;;;;;;;1.83;1.73;;;32.20;55.90;;;;;;5039764;28;20838;-37
2021/08/11 00:36:34;;;;;;;2.50;2.30;;;32.20;56.10;;;;;;5050130;28;20479;-36
2021/08/11 00:39:06;;;;;;;2.40;2.20;;;32.20;55.10;;;;;;5059964;28;20999;-37
2021/08/11 00:41:37;;;;;;;2.40;2.30;;;32.00;55.10;;;;;;5060293;28;20488;-36
2021/08/11 00:44:09;;;;;;;2.63;2.43;;;32.00;54.90;;;;;;5059587;28;20466;-37
2021/08/11 00:46:42;;;;;;;2.40;2.20;;;31.80;55.10;;;;;;5059787;28;20449;-37
2021/08/11 00:49:16;;;;;;;2.80;2.60;;;31.80;55.10;;;;;;5059707;28;20514;-36
2021/08/11 00:51:48;;;;;;;4.13;3.17;;;31.80;54.80;;;;;;5058684;28;20454;-37
2021/08/11 00:54:20;;;;;;;2.80;2.60;;;31.60;55.50;;;;;;5059350;28;20447;-37
2021/08/11 00:56:53;;;;;;;3.60;2.70;;;31.50;55.50;;;;;;5059781;28;20452;-37
2021/08/11 00:59:29;;;;;;;2.80;2.60;;;31.50;55.50;;;;;;5050056;28;20448;-36
2021/08/11 01:02:00;;;;;;;2.37;2.27;;;31.50;55.90;;;;;;5039625;28;20447;-36
2021/08/11 01:04:33;;;;;;;3.43;3.13;;;31.40;56.10;;;;;;5039127;28;20530;-36
2021/08/11 01:07:05;;;;;;;2.73;1.93;;;31.40;56.40;;;;;;5038849;28;20836;-36
2021/08/11 01:09:38;;;;;;;2.73;1.90;;;31.40;56.10;;;;;;5039070;28;20453;-35
2021/08/11 01:12:09;;;;;;;2.70;2.50;;;31.30;56.30;;;;;;5039531;28;20434;-37
2021/08/11 01:14:43;;;;;;;2.77;2.30;;;31.30;56.50;;;;;;5031578;28;20460;-36
2021/08/11 01:17:14;;;;;;;3.57;2.10;;;31.30;56.00;;;;;;5021663;28;20464;-36
2021/08/11 01:19:46;;;;;;;2.13;2.00;;;31.30;56.10;;;;;;5039769;28;20463;-36
2021/08/11 01:22:25;;;;;;;2.97;2.27;;;31.30;56.10;;;;;;5040111;28;20452;-37
2021/08/11 01:25:05;;;;;;;2.20;2.10;;;31.20;56.30;;;;;;5042527;28;20449;-37
2021/08/11 01:28:08;;;;;;;2.33;2.23;;;31.30;55.90;;;;;;5042503;28;20431;-37
2021/08/11 01:30:49;;;;;;;2.70;2.00;;;31.20;56.10;;;;;;5066359;28;20645;-37
2021/08/11 01:33:46;;;;;;;2.33;2.23;;;31.10;56.30;;;;;;5043480;28;20432;-37
2021/08/11 01:36:26;;;;;;;2.20;2.10;;;31.10;56.90;;;;;;5038357;28;20457;-37
2021/08/11 01:39:01;;;;;;;2.03;1.90;;;31.00;56.80;;;;;;5028185;28;20476;-37
2021/08/11 01:41:36;;;;;;;4.00;2.00;;;31.00;57.20;;;;;;5038001;28;20455;-37
2021/08/11 01:44:09;;;;;;;4.97;2.03;;;31.00;57.10;;;;;;5029857;28;20442;-37
2021/08/11 01:46:44;;;;;;;1.87;1.77;;;31.00;57.10;;;;;;5039520;28;20567;-36
2021/08/11 01:49:18;;;;;;;2.50;2.30;;;31.10;56.90;;;;;;5041891;28;20557;-37
2021/08/11 01:51:49;;;;;;;2.10;2.00;;;31.10;55.80;;;;;;5027562;28;20477;-38
2021/08/11 01:54:21;;;;;;;3.30;2.43;;;31.00;56.10;;;;;;5038235;28;20440;-37
2021/08/11 01:56:52;;;;;;;1.87;1.77;;;31.00;56.00;;;;;;5028415;28;20479;-36
2021/08/11 01:59:25;;;;;;;2.27;2.10;;;31.00;56.40;;;;;;5041292;28;20491;-36
2021/08/11 02:01:56;;;;;;;2.10;2.00;;;31.00;56.70;;;;;;5027012;27;20621;-38
2021/08/11 02:04:30;;;;;;;1.87;1.77;;;30.90;56.50;;;;;;5042216;28;20533;-37
2021/08/11 02:07:02;;;;;;;3.60;2.30;;;30.80;56.20;;;;;;5037719;28;20960;-37
2021/08/11 02:09:34;;;;;;;3.53;2.93;;;30.90;56.10;;;;;;5054192;28;20471;-36
2021/08/11 02:12:06;;;;;;;2.40;2.20;;;30.70;56.50;;;;;;5041262;28;20447;-37
2021/08/11 02:14:40;;;;;;;2.80;2.60;;;30.60;56.60;;;;;;5041280;28;20505;-36
2021/08/11 02:17:11;;;;;;;3.30;2.33;;;30.50;57.10;;;;;;5056789;27;20479;-36
2021/08/11 02:19:44;;;;;;;2.73;1.90;;;30.40;57.40;;;;;;5028794;28;20488;-37
2021/08/11 02:22:15;;;;;;;2.73;1.67;;;30.30;57.60;;;;;;5039922;28;20511;-37
2021/08/11 02:24:46;;;;;;;5.67;2.10;;;30.30;56.80;;;;;;5049765;28;20824;-36
2021/08/11 02:27:22;;;;;;;3.13;1.97;;;30.30;56.50;;;;;;5040597;28;20579;-36
2021/08/11 02:29:58;;;;;;;2.40;1.90;;;30.20;56.60;;;;;;5040908;28;20449;-36
2021/08/11 02:32:37;;;;;;;1.90;1.80;;;30.10;57.10;;;;;;5041032;28;20874;-37
2021/08/11 02:35:18;;;;;;;2.47;2.20;;;30.00;56.70;;;;;;5056385;28;20451;-36
2021/08/11 02:37:57;;;;;;;1.57;1.47;;;30.00;56.70;;;;;;5044608;28;20500;-35
2021/08/11 02:40:36;;;;;;;3.27;1.90;;;29.90;56.50;;;;;;5052145;28;20498;-35
2021/08/11 02:43:13;;;;;;;2.23;2.03;;;30.00;56.80;;;;;;5039414;28;20433;-37
2021/08/11 02:45:47;;;;;;;2.10;1.77;;;29.90;56.70;;;;;;5042514;28;20504;-37
2021/08/11 02:48:20;;;;;;;1.57;1.47;;;29.90;56.60;;;;;;5059256;27;20453;-37
2021/08/11 02:50:53;;;;;;;1.80;1.70;;;29.90;56.80;;;;;;5040440;28;20450;-36
2021/08/11 02:53:26;;;;;;;1.77;1.67;;;29.80;57.00;;;;;;5041184;28;20446;-36
2021/08/11 02:55:58;;;;;;;2.13;1.93;;;29.70;56.90;;;;;;5039148;28;20522;-36
2021/08/11 02:58:30;;;;;;;1.93;1.83;;;29.60;57.30;;;;;;5041277;28;20470;-45
2021/08/11 03:01:02;;;;;;;2.47;1.80;;;29.40;57.30;;;;;;5039964;28;20560;-45
2021/08/11 03:03:34;;;;;;;2.47;2.27;;;29.30;57.70;;;;;;5039393;28;20459;-46
2021/08/11 03:06:07;;;;;;;2.60;2.23;;;29.30;57.60;;;;;;5045012;28;20505;-44
2021/08/11 03:08:39;;;;;;;2.30;2.10;;;29.20;57.30;;;;;;5049638;27;20452;-44
2021/08/11 03:11:12;;;;;;;2.50;2.30;;;29.10;57.70;;;;;;5040475;28;20464;-45
2021/08/11 03:13:43;;;;;;;3.57;2.13;;;29.00;57.60;;;;;;5040627;28;20462;-45
2021/08/11 03:16:15;;;;;;;2.00;1.90;;;28.90;57.60;;;;;;5038105;28;20459;-45
2021/08/11 03:18:46;;;;;;;4.37;1.97;;;28.80;58.10;;;;;;5035830;28;20548;-45
2021/08/11 03:21:20;;;;;;;2.67;1.63;;;28.80;57.70;;;;;;5039487;28;20460;-45
2021/08/11 03:23:51;;;;;;;3.80;2.03;;;28.80;57.50;;;;;;5037609;28;20499;-45
2021/08/11 03:26:23;;;;;;;2.37;1.97;;;28.80;57.40;;;;;;5030603;28;20602;-44
2021/08/11 03:28:58;;;;;;;3.63;3.33;;;28.70;57.90;;;;;;5040642;28;20465;-45
2021/08/11 03:31:32;;;;;;;2.60;2.40;;;28.70;58.20;;;;;;5042727;28;20575;-43
2021/08/11 03:34:03;;;;;;;4.70;2.47;;;28.60;58.30;;;;;;5039670;28;20452;-45
2021/08/11 03:36:36;;;;;;;1.93;1.83;;;28.60;58.90;;;;;;5030763;28;21007;-44
2021/08/11 03:39:07;;;;;;;2.60;2.40;;;28.50;58.40;;;;;;5039499;28;20487;-45
2021/08/11 03:41:38;;;;;;;8.50;6.60;;;28.40;58.30;;;;;;5034196;28;20448;-44
2021/08/11 03:44:09;;;;;;;4.70;4.30;;;28.40;58.00;;;;;;5035710;28;20456;-45
2021/08/11 03:46:40;;;;;;;3.33;3.07;;;28.30;58.50;;;;;;5038776;28;20568;-45
2021/08/11 03:49:12;;;;;;;5.10;4.60;;;28.10;58.20;;;;;;5031379;28;20461;-45
2021/08/11 03:51:45;;;;;;;11.77;7.90;;;28.00;58.90;;;;;;5038770;28;20502;-44
2021/08/11 03:54:16;;;;;;;5.47;3.67;;;27.90;59.20;;;;;;5037242;27;20499;-44
2021/08/11 03:56:47;;;;;;;1.73;1.63;;;27.70;60.10;;;;;;5059163;27;20517;-46
2021/08/11 03:59:18;;;;;;;2.77;2.00;;;27.70;61.00;;;;;;5042638;27;20480;-45
2021/08/11 04:01:53;;;;;;;1.77;1.67;;;27.60;61.70;;;;;;5094403;27;20460;-46
2021/08/11 04:04:25;;;;;;;5.07;2.20;;;27.50;62.30;;;;;;5063465;27;20479;-46
2021/08/11 04:06:57;;;;;;;2.17;1.97;;;27.50;62.90;;;;;;5038523;28;20456;-45
2021/08/11 04:09:29;;;;;;;2.57;1.83;;;27.30;64.00;;;;;;5039862;28;20463;-46
2021/08/11 04:12:00;;;;;;;1.63;1.53;;;27.30;63.50;;;;;;5044107;28;20483;-45
2021/08/11 04:14:31;;;;;;;1.63;1.53;;;27.20;63.00;;;;;;5059487;27;20470;-45
2021/08/11 04:17:02;;;;;;;2.10;1.90;;;27.20;63.10;;;;;;5038831;28;20492;-44
2021/08/11 04:19:33;;;;;;;1.93;1.40;;;27.10;62.30;;;;;;5039746;28;20488;-46
2021/08/11 04:22:06;;;;;;;2.70;1.80;;;27.10;62.40;;;;;;5035068;28;20519;-46
2021/08/11 04:24:37;;;;;;;2.00;1.90;;;27.00;62.00;;;;;;5025433;28;20601;-45
2021/08/11 04:27:09;;;;;;;3.50;1.90;;;26.90;61.80;;;;;;5040831;28;20507;-45
2021/08/11 04:29:40;;;;;;;2.23;1.63;;;26.90;62.30;;;;;;5036538;28;20594;-45
2021/08/11 04:32:12;;;;;;;1.90;1.80;;;26.80;62.00;;;;;;5030362;28;20526;-46
2021/08/11 04:34:43;;;;;;;3.20;1.80;;;26.80;61.90;;;;;;5039379;28;20460;-46
2021/08/11 04:37:17;;;;;;;1.63;1.53;;;26.80;62.30;;;;;;5080389;28;20479;-45
2021/08/11 04:39:49;;;;;;;2.00;1.60;;;26.70;62.60;;;;;;5047392;28;20515;-45
2021/08/11 04:42:21;;;;;;;2.50;1.80;;;26.60;63.30;;;;;;5033315;28;20455;-45
2021/08/11 04:44:52;;;;;;;3.20;1.57;;;26.50;63.30;;;;;;5039288;28;20936;-46
2021/08/11 04:47:23;;;;;;;2.70;1.67;;;26.60;62.70;;;;;;5039472;28;20458;-46
2021/08/11 04:49:54;;;;;;;4.00;2.00;;;26.60;62.60;;;;;;5038450;28;20450;-46
2021/08/11 04:52:27;;;;;;;2.40;1.60;;;26.50;62.40;;;;;;5038196;28;20515;-45
2021/08/11 04:54:58;;;;;;;1.83;1.50;;;26.50;62.80;;;;;;5039763;28;20453;-45
2021/08/11 04:57:29;;;;;;;1.80;1.70;;;26.50;62.60;;;;;;5039987;28;20494;-45
2021/08/11 05:00:00;;;;;;;1.47;1.37;;;26.50;62.60;;;;;;5047874;28;20473;-45
2021/08/11 05:02:32;;;;;;;1.70;1.60;;;26.40;62.90;;;;;;5071409;27;20482;-46
2021/08/11 05:05:04;;;;;;;1.17;1.13;;;26.30;63.50;;;;;;5038427;28;20461;-44
2021/08/11 05:07:37;;;;;;;2.53;1.70;;;26.20;64.40;;;;;;5030017;28;20479;-45
2021/08/11 05:10:08;;;;;;;2.17;1.90;;;26.10;64.30;;;;;;5042252;28;20608;-45
2021/08/11 05:12:40;;;;;;;2.53;2.07;;;26.00;64.90;;;;;;5026646;28;20453;-45
2021/08/11 05:15:12;;;;;;;1.80;1.70;;;25.90;65.60;;;;;;5043162;28;20445;-45
2021/08/11 05:17:43;;;;;;;1.53;1.43;;;25.90;66.00;;;;;;5041171;28;20456;-44
2021/08/11 05:20:15;;;;;;;2.40;1.43;;;25.80;66.30;;;;;;5035822;28;20527;-44
2021/08/11 05:22:48;;;;;;;1.87;1.77;;;25.70;67.10;;;;;;5027008;28;20475;-45
2021/08/11 05:25:20;;;;;;;1.60;1.40;;;25.60;67.70;;;;;;5038415;28;20473;-45
2021/08/11 05:27:51;;;;;;;1.93;1.53;;;25.60;68.20;;;;;;5045511;28;20509;-45
2021/08/11 05:30:23;;;;;;;1.53;1.23;;;25.60;68.60;;;;;;5050046;28;20441;-45
2021/08/11 05:32:55;;;;;;;1.40;1.30;;;25.40;69.50;;;;;;5027162;28;20450;-44
2021/08/11 05:35:26;;;;;;;1.60;1.50;;;25.30;69.90;;;;;;5053664;27;20454;-44
2021/08/11 05:37:59;;;;;;;1.83;1.60;;;25.30;70.10;;;;;;5041460;28;20513;-46
2021/08/11 05:40:30;;;;;;;1.40;1.30;;;25.50;69.70;;;;;;5042172;28;20496;-44
2021/08/11 05:43:01;;;;;;;2.20;1.70;;;25.50;69.70;;;;;;5055512;28;20483;-44
2021/08/11 05:45:32;;;;;;;1.87;1.50;;;25.60;70.90;;;;;;5042572;28;20449;-44
2021/08/11 05:48:03;;;;;;;1.93;1.83;;;25.50;70.50;;;;;;5042793;28;20463;-44
2021/08/11 05:50:34;;;;;;;1.47;1.33;;;25.40;71.20;;;;;;5041455;28;20454;-45
2021/08/11 05:53:07;;;;;;;1.50;1.40;;;25.30;71.50;;;;;;5049693;28;20450;-44
2021/08/11 05:55:38;;;;;;;1.90;1.80;;;25.30;72.00;;;;;;5047574;28;20460;-45
2021/08/11 05:58:10;;;;;;;1.53;1.43;;;25.30;72.30;;;;;;5048279;28;20445;-44
2021/08/11 06:00:42;;;;;;;1.47;1.37;;;25.20;72.70;;;;;;5049808;28;20484;-44
2021/08/11 06:03:13;;;;;;;1.43;1.33;;;25.10;72.70;;;;;;5028955;28;20453;-45
2021/08/11 06:05:45;;;;;;;1.77;1.50;;;25.10;72.90;;;;;;5050651;28;20495;-45
2021/08/11 06:08:17;;;;;;;1.50;1.40;;;25.10;73.50;;;;;;5048779;28;20952;-44
2021/08/11 06:10:48;;;;;;;2.23;1.50;;;25.00;73.70;;;;;;5042112;28;20446;-44
2021/08/11 06:13:20;;;;;;;1.73;1.60;;;25.00;73.70;;;;;;5043694;28;20446;-45
2021/08/11 06:15:51;;;;;;;2.20;1.70;;;25.00;74.20;;;;;;5047470;28;21081;-45
2021/08/11 06:18:22;;;;;;;1.43;1.33;;;24.90;73.80;;;;;;5050297;28;20449;-45
2021/08/11 06:20:53;;;;;;;1.50;1.40;;;24.80;74.60;;;;;;5042210;28;20538;-45
2021/08/11 06:23:26;;;;;;;2.83;1.87;;;24.80;75.30;;;;;;5044606;28;20473;-44
2021/08/11 06:25:57;;;;;;;1.60;1.50;;;24.70;75.40;;;;;;5045624;28;20480;-45
2021/08/11 06:28:28;;;;;;;1.53;1.40;;;24.70;76.50;;;;;;5044924;28;20927;-45
2021/08/11 06:30:59;;;;;;;1.50;1.40;;;24.60;75.40;;;;;;5040758;28;20481;-44
2021/08/11 06:33:31;;;;;;;1.30;1.20;;;24.70;75.20;;;;;;5045688;28;20460;-45
2021/08/11 06:36:02;;;;;;;1.40;1.30;;;24.70;75.60;;;;;;5040357;28;20454;-45
2021/08/11 06:38:34;;;;;;;1.33;1.23;;;24.70;75.60;;;;;;5046109;28;20468;-45
2021/08/11 06:41:05;;;;;;;1.90;1.40;;;24.70;75.80;;;;;;5040923;28;20469;-45
2021/08/11 06:43:37;;;;;;;1.53;1.43;;;24.60;75.80;;;;;;5041424;28;20507;-45
2021/08/11 06:46:08;;;;;;;1.40;1.30;;;24.60;76.40;;;;;;5040385;28;20449;-44
2021/08/11 06:48:39;;;;;;;1.30;1.20;;;24.60;76.00;;;;;;5041195;28;20544;-45
2021/08/11 06:51:11;;;;;;;2.00;1.30;;;24.60;76.20;;;;;;5041422;28;20450;-45
2021/08/11 06:53:44;;;;;;;1.53;1.43;;;24.50;76.70;;;;;;5043128;28;20453;-45
2021/08/11 06:56:15;;;;;;;1.60;1.50;;;24.50;76.60;;;;;;5051295;28;20501;-44
2021/08/11 06:58:46;;;;;;;2.13;1.43;;;24.50;76.80;;;;;;5046196;28;20473;-44
2021/08/11 07:01:17;;;;;;;2.77;1.30;;;24.40;77.40;;;;;;5046435;28;20548;-44
2021/08/11 07:03:48;;;;;;;1.57;1.47;;;24.40;77.50;;;;;;5048477;28;20467;-44
2021/08/11 07:06:19;;;;;;;1.60;1.50;;;24.40;77.50;;;;;;5046460;28;20507;-44
2021/08/11 07:08:52;;;;;;;1.63;1.50;;;24.40;77.30;;;;;;5045361;28;20885;-44
2021/08/11 07:11:24;;;;;;;1.50;1.40;;;24.40;77.60;;;;;;5041875;28;20590;-44
2021/08/11 07:13:55;;;;;;;1.20;1.10;;;24.30;77.90;;;;;;5041470;28;20450;-44
2021/08/11 07:16:26;;;;;;;1.67;1.30;;;24.30;77.70;;;;;;5039787;28;20450;-44
2021/08/11 07:18:57;;;;;;;1.30;1.20;;;24.30;77.70;;;;;;5049522;28;20438;-44
2021/08/11 07:21:28;;;;;;;2.60;1.67;;;24.30;77.80;;;;;;5040982;28;20538;-44
2021/08/11 07:24:01;;;;;;;1.70;1.43;;;24.20;78.60;;;;;;5041924;28;20449;-44
2021/08/11 07:26:32;;;;;;;1.47;1.37;;;24.10;78.80;;;;;;5039812;28;20522;-44
2021/08/11 07:29:03;;;;;;;1.67;1.57;;;24.00;79.30;;;;;;5040286;28;20446;-44
2021/08/11 07:31:34;;;;;;;1.40;1.30;;;24.00;79.80;;;;;;5044498;28;20477;-45
2021/08/11 07:34:06;;;;;;;1.60;1.30;;;23.80;80.10;;;;;;5040846;28;20464;-43
2021/08/11 07:36:37;;;;;;;1.70;1.37;;;23.90;79.90;;;;;;5039690;28;20513;-44
2021/08/11 07:39:10;;;;;;;1.60;1.50;;;23.90;80.30;;;;;;5045590;28;20424;-44
2021/08/11 07:41:41;;;;;;;1.70;1.13;;;23.80;80.60;;;;;;5044644;27;20484;-44
2021/08/11 07:44:12;;;;;;;2.07;1.97;;;23.80;81.20;;;;;;5040123;28;20460;-44
2021/08/11 07:46:43;;;;;;;1.77;1.63;;;23.80;81.70;;;;;;5038417;28;20428;-44
2021/08/11 07:49:14;;;;;;;1.70;1.60;;;23.80;81.10;;;;;;5041013;28;20492;-44
2021/08/11 07:51:45;;;;;;;1.43;1.33;;;23.80;81.20;;;;;;5040926;28;20457;-43
2021/08/11 07:54:18;;;;;;;2.67;1.43;;;23.80;80.90;;;;;;5054115;28;20441;-44
2021/08/11 07:56:49;;;;;;;1.83;1.30;;;23.80;81.20;;;;;;5051929;28;20445;-44
2021/08/11 07:59:20;;;;;;;3.57;1.90;;;23.80;81.50;;;;;;5037662;28;20499;-44
2021/08/11 08:01:51;;;;;;;2.80;1.73;;;23.80;81.60;;;;;;5043906;28;20481;-44
2021/08/11 08:04:23;;;;;;;1.90;1.80;;;23.80;81.70;;;;;;5040429;28;20953;-44
2021/08/11 08:58:57;;;;;;;2.17;1.63;;;22.90;89.90;;;;;;2589213;28;22581;-45
2021/08/11 09:01:29;;;;;;;2.70;2.20;;;22.80;89.20;;;;;;5113888;28;20456;-44
2021/08/11 09:04:01;;;;;;;1.60;1.50;;;22.80;89.90;;;;;;5119228;28;20421;-44
2021/08/11 09:10:21;;;;;;;1.70;1.60;;;22.60;90.60;;;;;;5086955;28;20383;-43
2021/08/11 09:13:08;;;;;;;2.00;1.80;;;22.60;90.60;;;;;;5126389;28;20787;-44
2021/08/11 09:16:07;;;;;;;2.27;2.00;;;22.50;91.10;;;;;;5121128;28;20448;-44
2021/08/11 09:18:38;;;;;;;1.73;1.50;;;22.50;91.50;;;;;;5106216;28;20447;-44
2021/08/11 09:21:12;;;;;;;3.07;1.63;;;22.40;91.80;;;;;;5108753;28;20497;-44
2021/08/11 09:23:46;;;;;;;1.87;1.77;;;22.40;92.30;;;;;;5106864;28;20520;-44
2021/08/11 09:30:08;;;;;;;1.50;1.40;;;22.20;92.80;;;;;;5088504;28;20568;-43
2021/08/11 09:32:52;;;;;;;1.80;1.70;;;22.10;93.20;;;;;;5099933;28;20516;-44
2021/08/11 09:35:26;;;;;;;2.70;1.90;;;22.10;93.70;;;;;;5104607;28;20446;-44
2021/08/11 09:37:58;;;;;;;2.40;1.97;;;22.00;93.70;;;;;;5105041;28;20445;-43
2021/08/11 09:40:31;;;;;;;3.27;1.90;;;22.00;94.00;;;;;;5111842;28;20416;-43
2021/08/11 09:43:03;;;;;;;2.00;1.47;;;22.00;94.50;;;;;;5109738;28;20482;-43
2021/08/11 09:45:45;;;;;;;1.90;1.63;;;22.00;94.70;;;;;;5105319;28;20827;-44
2021/08/11 09:52:01;;;;;;;1.57;1.47;;;21.90;95.50;;;;;;5103350;28;20449;-44
2021/08/11 09:54:33;;;;;;;2.30;1.80;;;21.80;95.60;;;;;;5099304;28;20449;-43
2021/08/11 09:57:04;;;;;;;2.10;1.90;;;21.80;96.10;;;;;;5113334;28;20464;-44
2021/08/11 09:59:58;;;;;;;2.20;1.97;;;21.70;96.60;;;;;;5091697;28;20455;-44
2021/08/11 10:02:29;;;;;;;2.37;2.17;;;21.70;97.20;;;;;;5042668;28;20460;-33
2021/08/11 10:05:00;;;;;;;2.40;1.70;;;21.60;98.00;;;;;;5050502;28;20424;-35
2021/08/11 10:07:33;;;;;;;2.90;1.87;;;21.50;98.40;;;;;;5041505;28;20453;-35
2021/08/11 10:13:48;;;;;;;2.30;1.77;;;21.50;99.10;;;;;;5035921;28;20415;-35
2021/08/11 10:16:19;;;;;;;1.97;1.87;;;21.40;99.90;;;;;;5031860;28;20483;-36
2021/08/11 10:18:51;;;;;;;1.77;1.50;;;21.30;99.90;;;;;;5053075;28;20471;-36
2021/08/11 10:21:22;;;;;;;1.80;1.70;;;21.30;99.90;;;;;;5040687;28;20439;-35
2021/08/11 10:23:55;;;;;;;1.70;1.60;;;21.30;99.90;;;;;;5038480;28;20461;-35
2021/08/11 10:26:26;;;;;;;1.73;1.63;;;21.30;99.90;;;;;;5044637;28;20450;-35
2021/08/11 10:28:57;;;;;;;1.93;1.73;;;21.20;99.90;;;;;;5046720;28;20436;-34
2021/08/11 10:31:31;;;;;;;2.10;1.90;;;21.20;99.90;;;;;;5047804;28;20454;-34
2021/08/11 10:34:03;;;;;;;2.17;1.60;;;21.10;99.90;;;;;;5040093;28;20523;-35
2021/08/11 10:36:34;;;;;;;1.73;1.50;;;21.00;99.90;;;;;;5043163;28;20991;-35
2021/08/11 10:39:07;;;;;;;2.60;1.87;;;20.90;99.90;;;;;;5038196;28;20428;-35
2021/08/11 10:41:40;;;;;;;2.70;1.80;;;21.00;99.90;;;;;;5038370;28;20494;-35
2021/08/11 10:44:18;;;;;;;2.93;2.23;;;21.00;99.90;;;;;;5039064;28;20461;-35
2021/08/11 10:46:55;;;;;;;2.17;1.90;;;20.90;99.90;;;;;;5046133;28;21416;-35
2021/08/11 10:49:28;;;;;;;3.63;2.10;;;20.80;99.90;;;;;;5041271;28;20453;-36
2021/08/11 10:52:15;;;;;;;2.30;2.10;;;20.80;99.90;;;;;;5042619;28;20475;-35
2021/08/11 10:54:55;;;;;;;2.50;2.27;;;20.80;99.90;;;;;;5040785;28;20529;-34
2021/08/11 10:57:48;;;;;;;1.97;1.60;;;20.80;99.90;;;;;;5053876;28;20448;-35
2021/08/11 11:00:42;;;;;;;2.63;1.80;;;20.70;99.90;;;;;;5050638;28;20454;-35
2021/08/11 11:03:39;;;;;;;2.07;1.87;;;20.70;99.90;;;;;;5040768;28;20489;-35
2021/08/11 11:06:11;;;;;;;2.53;2.00;;;20.60;99.90;;;;;;5045313;28;20459;-35
2021/08/11 11:08:42;;;;;;;2.93;2.73;;;20.60;99.90;;;;;;5040908;28;20436;-35
2021/08/11 11:11:39;;;;;;;1.77;1.60;;;20.60;99.90;;;;;;5032462;28;20943;-35
2021/08/11 11:14:53;;;;;;;2.53;2.33;;;20.50;99.90;;;;;;5037494;28;20457;-36
2021/08/11 11:17:28;;;;;;;2.00;1.90;;;20.40;99.90;;;;;;5045398;28;20449;-35
2021/08/11 11:20:29;;;;;;;1.93;1.73;;;20.50;99.90;;;;;;5040655;28;20457;-35
2021/08/11 11:23:08;;;;;;;2.77;2.37;;;20.40;99.90;;;;;;5029941;28;20486;-35
2021/08/11 11:26:09;;;;;;;3.20;2.20;;;20.30;99.90;;;;;;5039344;28;20436;-35
2021/08/11 11:29:03;;;;;;;2.20;2.00;;;20.40;99.90;;;;;;5044778;28;20461;-35
2021/08/11 11:31:39;;;;;;;1.80;1.70;;;20.30;99.90;;;;;;5040294;28;20428;-36
2021/08/11 11:34:28;;;;;;;1.70;1.60;;;20.30;99.90;;;;;;5040182;28;20476;-36
2021/08/11 11:37:26;;;;;;;2.10;1.83;;;20.30;99.90;;;;;;5049309;28;20419;-35
2021/08/11 11:40:07;;;;;;;2.20;2.00;;;20.20;99.90;;;;;;5042174;28;20492;-37
2021/08/11 11:42:39;;;;;;;2.30;2.10;;;20.20;99.90;;;;;;5046890;28;21007;-35
2021/08/11 11:45:14;;;;;;;2.87;2.57;;;20.10;99.90;;;;;;5040255;28;20424;-34
2021/08/11 11:48:13;;;;;;;2.23;2.13;;;20.10;99.90;;;;;;5039566;28;20520;-34
2021/08/11 11:50:46;;;;;;;2.60;2.20;;;20.10;99.90;;;;;;5039616;28;20458;-35
2021/08/11 11:53:26;;;;;;;3.43;2.20;;;20.10;99.90;;;;;;5039945;28;20543;-35
2021/08/11 11:55:57;;;;;;;2.53;2.33;;;20.00;99.90;;;;;;5042089;28;20427;-35
2021/08/11 11:58:29;;;;;;;2.40;1.83;;;20.00;99.90;;;;;;5045474;28;20415;-34
2021/08/11 12:01:04;;;;;;;2.57;2.37;;;20.00;99.90;;;;;;5048310;28;20473;-34
2021/08/11 12:03:37;;;;;;;2.50;2.00;;;20.00;99.90;;;;;;5044761;28;20531;-34
2021/08/11 12:06:10;;;;;;;2.70;2.17;;;20.00;99.90;;;;;;5038873;28;20542;-34
2021/08/11 12:08:57;;;;;;;3.00;2.03;;;19.90;99.90;;;;;;5038852;28;20459;-35
2021/08/11 12:11:29;;;;;;;2.40;2.20;;;19.90;99.90;;;;;;5046075;28;20497;-36
2021/08/11 12:14:01;;;;;;;2.40;2.20;;;19.80;99.90;;;;;;5046625;28;20427;-35
2021/08/11 12:16:42;;;;;;;2.30;2.10;;;19.80;99.90;;;;;;5046983;28;20423;-34
2021/08/11 12:19:15;;;;;;;2.77;2.53;;;19.70;99.90;;;;;;5040229;28;20419;-34
2021/08/11 12:21:48;;;;;;;2.40;2.20;;;19.70;99.90;;;;;;5039114;28;20446;-34
2021/08/11 12:24:19;;;;;;;2.30;2.10;;;19.70;99.90;;;;;;5039553;28;20480;-34
2021/08/11 12:26:50;;;;;;;2.97;2.17;;;19.60;99.90;;;;;;5040330;28;20457;-34
2021/08/11 12:29:22;;;;;;;3.07;2.43;;;19.60;99.90;;;;;;5040751;28;20449;-34
2021/08/11 12:31:55;;;;;;;2.30;2.10;;;19.60;99.90;;;;;;5041019;28;20424;-35
2021/08/11 12:34:27;;;;;;;2.00;1.80;;;19.60;99.90;;;;;;5044905;28;20441;-35
2021/08/11 12:36:59;;;;;;;2.50;2.30;;;19.50;99.90;;;;;;5023623;28;20518;-35
2021/08/11 12:39:38;;;;;;;2.60;2.00;;;19.50;99.90;;;;;;5029123;28;20475;-34
2021/08/11 12:42:09;;;;;;;3.47;2.17;;;19.40;99.90;;;;;;5049386;28;20430;-35
2021/08/11 12:44:40;;;;;;;2.13;1.93;;;19.40;99.90;;;;;;5039249;28;20518;-33
2021/08/11 12:47:15;;;;;;;2.73;2.13;;;19.40;99.90;;;;;;5038840;28;20473;-35
2021/08/11 12:49:49;;;;;;;2.70;2.50;;;19.30;99.90;;;;;;5039715;28;20452;-34
2021/08/11 12:52:22;;;;;;;6.20;2.40;;;19.30;99.90;;;;;;5046070;28;20410;-34
2021/08/11 12:54:55;;;;;;;2.43;2.23;;;19.30;99.90;;;;;;5039999;28;20473;-34
2021/08/11 12:57:27;;;;;;;2.17;1.77;;;19.30;99.90;;;;;;5041231;28;20454;-35
2021/08/11 13:00:00;;;;;;;3.00;2.67;;;19.30;99.90;;;;;;5040641;28;20549;-35
2021/08/11 13:02:33;;;;;;;2.60;2.40;;;19.20;99.90;;;;;;5039070;28;20450;-34
2021/08/11 13:05:12;;;;;;;4.20;2.90;;;19.20;99.90;;;;;;5038864;28;20493;-35
2021/08/11 13:07:54;;;;;;;8.13;2.33;;;19.20;99.90;;;;;;5038004;28;20456;-34
2021/08/11 13:10:26;;;;;;;4.70;2.40;;;19.20;99.90;;;;;;5040574;28;22576;-34
2021/08/11 13:12:57;;;;;;;3.67;2.40;;;19.20;99.90;;;;;;5048373;28;20453;-35
2021/08/11 13:15:30;;;;;;;2.53;2.30;;;19.10;99.90;;;;;;5038801;28;20440;-35
2021/08/11 13:18:04;;;;;;;2.27;2.07;;;19.10;99.90;;;;;;5023754;28;20488;-36
2021/08/11 13:20:38;;;;;;;2.80;2.60;;;19.10;99.90;;;;;;5040916;28;20448;-35
2021/08/11 13:23:10;;;;;;;4.80;2.70;;;19.10;99.90;;;;;;5040671;28;20416;-35
2021/08/11 13:25:46;;;;;;;2.60;2.40;;;19.00;99.90;;;;;;5043557;28;20483;-35
2021/08/11 13:28:17;;;;;;;2.93;2.30;;;19.00;99.90;;;;;;5054874;28;20427;-35
2021/08/11 13:30:49;;;;;;;2.87;2.57;;;19.00;99.90;;;;;;5043588;28;20479;-35
2021/08/11 13:33:22;;;;;;;2.97;2.53;;;19.00;99.90;;;;;;5042496;28;20492;-34
2021/08/11 13:35:53;;;;;;;2.60;2.00;;;19.00;99.90;;;;;;5041408;28;20441;-35
2021/08/11 13:38:24;;;;;;;2.53;2.33;;;19.00;99.90;;;;;;5042520;28;20445;-35
2021/08/11 13:40:55;;;;;;;2.43;2.07;;;19.10;99.90;;;;;;5043630;28;20594;-35
2021/08/11 13:43:26;;;;;;;3.20;2.63;;;19.10;99.90;;;;;;5068393;27;20484;-43
2021/08/11 13:45:59;;;;;;;5.73;2.60;;;19.10;99.90;;;;;;5046335;27;20454;-43
2021/08/11 13:48:32;;;;;;;2.40;2.20;;;19.10;99.90;;;;;;5042152;28;20445;-43
2021/08/11 13:51:03;;;;;;;2.60;2.40;;;19.10;99.90;;;;;;5041076;28;20490;-43
2021/08/11 13:53:34;;;;;;;2.50;2.30;;;19.10;99.90;;;;;;5041404;28;20460;-42
2021/08/11 13:56:08;;;;;;;2.57;2.27;;;19.10;99.90;;;;;;5040685;28;21003;-43
2021/08/11 13:58:40;;;;;;;2.43;2.10;;;19.10;99.90;;;;;;5042159;28;20774;-42
2021/08/11 14:01:11;;;;;;;3.47;2.23;;;19.10;99.90;;;;;;5040950;28;20533;-43
2021/08/11 14:03:44;;;;;;;2.47;2.27;;;19.20;99.90;;;;;;5040734;28;20587;-42
2021/08/11 14:06:15;;;;;;;5.37;2.93;;;19.30;99.90;;;;;;5040176;28;20449;-43
2021/08/11 14:08:47;;;;;;;2.70;2.50;;;19.40;99.90;;;;;;5041546;28;20459;-42
2021/08/11 14:11:18;;;;;;;2.47;2.27;;;19.40;99.90;;;;;;5042146;28;20453;-42
2021/08/11 14:13:49;;;;;;;2.73;2.33;;;19.50;99.90;;;;;;5041591;28;20428;-42
2021/08/11 14:16:20;;;;;;;3.20;2.90;;;19.50;99.90;;;;;;5040981;28;20982;-42
2021/08/11 14:18:53;;;;;;;2.43;2.20;;;19.50;99.90;;;;;;5041083;28;20464;-42
2021/08/11 14:21:24;;;;;;;2.93;2.10;;;19.60;99.90;;;;;;5040748;28;20420;-42
2021/08/11 14:23:55;;;;;;;2.33;2.13;;;19.60;99.90;;;;;;5041781;28;20532;-43
2021/08/11 14:26:26;;;;;;;2.40;1.73;;;19.70;99.90;;;;;;5041430;28;20445;-43
2021/08/11 14:28:58;;;;;;;4.33;2.47;;;19.80;99.90;;;;;;5040748;28;20435;-43